createdAt,value
2018-01-27T00:00:10.143Z,87.57
2018-01-27T00:02:36.288Z,87.55
2018-01-27T00:05:02.395Z,87.59
2018-01-27T00:07:28.631Z,87.87
2018-01-27T00:09:54.806Z,87.67
2018-01-27T00:12:20.962Z,87.62
2018-01-27T00:14:47.191Z,87.50
2018-01-27T00:17:13.423Z,87.40
2018-01-27T00:19:39.568Z,87.16
2018-01-27T00:22:05.774Z,86.59
2018-01-27T00:24:31.867Z,86.87
2018-01-27T00:26:58.042Z,86.57
2018-01-27T00:29:24.208Z,86.69
2018-01-27T00:31:50.325Z,87.08
2018-01-27T00:34:16.494Z,87.05
2018-01-27T00:36:42.632Z,87.03
2018-01-27T00:39:08.790Z,87.18
2018-01-27T00:41:34.905Z,87.06
2018-01-27T00:44:01.063Z,87.01
2018-01-27T00:46:27.167Z,87.02
2018-01-27T00:48:53.415Z,87.14
2018-01-27T00:51:19.531Z,87.16
2018-01-27T00:53:45.669Z,87.42
2018-01-27T00:56:11.929Z,87.41
2018-01-27T00:58:38.086Z,87.21
2018-01-27T01:01:04.203Z,87.17
2018-01-27T01:03:30.394Z,87.27
2018-01-27T01:05:56.520Z,87.28
2018-01-27T01:08:22.723Z,87.28
2018-01-27T01:10:48.830Z,87.26
2018-01-27T01:13:14.922Z,87.22
2018-01-27T01:15:42.187Z,86.99
2018-01-27T01:18:08.359Z,86.87
2018-01-27T01:20:34.448Z,86.11
2018-01-27T01:23:00.598Z,86.28
2018-01-27T01:25:26.879Z,86.77
2018-01-27T01:27:52.968Z,86.92
2018-01-27T01:30:19.139Z,87.41
2018-01-27T01:32:45.304Z,87.63
2018-01-27T01:35:18.345Z,87.87
2018-01-27T01:37:44.491Z,88.12
2018-01-27T01:40:10.646Z,88.30
2018-01-27T01:42:42.655Z,89.09
2018-01-27T01:45:08.856Z,89.06
2018-01-27T01:47:34.974Z,89.09
2018-01-27T01:50:01.292Z,89.29
2018-01-27T01:52:27.454Z,89.45
2018-01-27T01:54:53.554Z,89.60
2018-01-27T01:57:19.795Z,89.49
2018-01-27T01:59:45.972Z,89.49
2018-01-27T02:02:12.104Z,89.47
2018-01-27T02:04:38.245Z,89.43
2018-01-27T02:07:04.343Z,89.42
2018-01-27T02:09:30.550Z,89.27
2018-01-27T02:11:56.702Z,88.99
2018-01-27T02:14:22.840Z,88.72
2018-01-27T02:16:49.065Z,88.18
2018-01-27T02:19:15.316Z,87.55
2018-01-27T02:21:41.460Z,87.64
2018-01-27T02:24:07.564Z,87.52
2018-01-27T02:26:33.741Z,87.61
2018-01-27T02:28:59.956Z,87.43
2018-01-27T02:31:26.148Z,87.52
2018-01-27T02:33:52.264Z,87.74
2018-01-27T02:36:18.393Z,87.58
2018-01-27T02:38:44.575Z,87.15
2018-01-27T02:41:10.700Z,85.11
2018-01-27T02:43:36.817Z,82.58
2018-01-27T02:46:02.953Z,80.23
2018-01-27T02:48:29.132Z,81.09
2018-01-27T02:50:55.236Z,81.08
2018-01-27T02:53:21.376Z,81.04
2018-01-27T02:55:47.571Z,81.84
2018-01-27T02:58:13.682Z,81.88
2018-01-27T03:00:39.882Z,82.45
2018-01-27T03:03:05.983Z,82.03
2018-01-27T03:05:32.129Z,81.04
2018-01-27T03:07:58.402Z,81.13
2018-01-27T03:10:24.546Z,81.91
2018-01-27T03:12:50.636Z,82.22
2018-01-27T03:15:16.746Z,82.43
2018-01-27T03:17:42.917Z,82.78
2018-01-27T03:20:09.101Z,83.18
2018-01-27T03:22:35.445Z,83.40
2018-01-27T03:25:01.691Z,83.02
2018-01-27T03:27:27.790Z,83.17
2018-01-27T03:29:53.915Z,83.29
2018-01-27T03:32:20.052Z,84.03
2018-01-27T03:34:46.198Z,84.12
2018-01-27T03:37:12.355Z,84.21
2018-01-27T03:39:38.566Z,84.47
2018-01-27T03:42:04.679Z,84.61
2018-01-27T03:44:30.793Z,84.75
2018-01-27T03:46:56.915Z,84.91
2018-01-27T03:49:23.154Z,85.33
2018-01-27T03:51:49.305Z,85.50
2018-01-27T03:54:15.408Z,85.83
2018-01-27T03:56:41.544Z,86.24
2018-01-27T03:59:07.700Z,86.38
2018-01-27T04:01:34.948Z,86.74
2018-01-27T04:04:01.365Z,86.88
2018-01-27T04:06:27.509Z,86.83
2018-01-27T04:08:53.742Z,87.08
2018-01-27T04:11:19.930Z,87.07
2018-01-27T04:13:46.081Z,86.99
2018-01-27T04:16:12.236Z,86.77
2018-01-27T04:18:38.484Z,86.45
2018-01-27T04:21:04.674Z,86.09
2018-01-27T04:23:30.858Z,86.18
2018-01-27T04:25:57.101Z,85.94
2018-01-27T04:28:24.273Z,85.85
2018-01-27T04:30:50.643Z,85.91
2018-01-27T04:33:16.803Z,85.79
2018-01-27T04:35:43.006Z,86.24
2018-01-27T04:38:09.321Z,85.96
2018-01-27T04:40:35.550Z,86.27
2018-01-27T04:43:01.709Z,86.33
2018-01-27T04:45:27.898Z,86.48
2018-01-27T04:47:54.175Z,86.84
2018-01-27T04:50:20.400Z,86.82
2018-01-27T04:52:46.573Z,86.72
2018-01-27T04:55:12.759Z,86.74
2018-01-27T04:57:38.925Z,86.58
2018-01-27T05:00:05.179Z,86.84
2018-01-27T05:02:31.357Z,86.73
2018-01-27T05:04:57.606Z,86.71
2018-01-27T05:07:23.860Z,86.89
2018-01-27T05:09:50.113Z,86.91
2018-01-27T05:12:16.312Z,86.64
2018-01-27T05:14:42.448Z,86.58
2018-01-27T05:17:08.724Z,86.39
2018-01-27T05:19:34.945Z,86.51
2018-01-27T05:22:01.099Z,86.59
2018-01-27T05:24:27.247Z,86.61
2018-01-27T05:26:53.466Z,86.46
2018-01-27T05:29:19.697Z,86.40
2018-01-27T05:31:45.857Z,86.50
2018-01-27T05:34:12.149Z,86.68
2018-01-27T05:36:38.297Z,86.97
2018-01-27T05:39:04.512Z,86.83
2018-01-27T05:41:30.676Z,86.88
2018-01-27T05:43:56.843Z,86.91
2018-01-27T05:46:23.056Z,87.11
2018-01-27T05:48:49.220Z,86.98
2018-01-27T05:51:15.444Z,87.20
2018-01-27T05:53:41.605Z,87.25
2018-01-27T05:56:07.764Z,87.45
2018-01-27T05:58:34.002Z,87.54
2018-01-27T06:01:00.212Z,87.52
2018-01-27T06:03:26.356Z,87.52
2018-01-27T06:05:52.512Z,87.49
2018-01-27T06:08:18.750Z,87.67
2018-01-27T06:10:45.054Z,87.71
2018-01-27T06:13:11.211Z,87.92
2018-01-27T06:15:37.403Z,87.93
2018-01-27T06:18:03.677Z,88.01
2018-01-27T06:20:42.717Z,87.89
2018-01-27T06:23:09.323Z,87.81
2018-01-27T06:25:35.498Z,87.86
2018-01-27T06:28:01.691Z,87.71
2018-01-27T06:30:28.687Z,87.78
2018-01-27T06:32:54.853Z,88.04
2018-01-27T06:35:21.035Z,88.03
2018-01-27T06:37:47.245Z,88.09
2018-01-27T06:40:13.482Z,88.11
2018-01-27T06:42:39.656Z,88.08
2018-01-27T06:45:05.863Z,88.27
2018-01-27T06:47:32.105Z,88.35
2018-01-27T06:49:58.318Z,88.29
2018-01-27T06:52:24.481Z,88.24
2018-01-27T06:54:50.698Z,88.13
2018-01-27T06:57:16.969Z,88.24
2018-01-27T06:59:43.238Z,88.27
2018-01-27T07:02:09.420Z,88.30
2018-01-27T07:04:35.574Z,88.41
2018-01-27T07:07:01.796Z,88.40
2018-01-27T07:09:28.928Z,88.54
2018-01-27T07:11:55.090Z,88.81
2018-01-27T07:14:21.336Z,88.66
2018-01-27T07:16:47.529Z,88.72
2018-01-27T07:19:13.716Z,88.58
2018-01-27T07:21:39.904Z,88.39
2018-01-27T07:24:06.104Z,88.38
2018-01-27T07:26:32.276Z,88.25
2018-01-27T07:29:00.404Z,88.40
2018-01-27T07:31:26.650Z,88.42
2018-01-27T07:33:52.827Z,88.87
2018-01-27T07:36:18.971Z,88.50
2018-01-27T07:38:45.181Z,88.46
2018-01-27T07:41:11.454Z,88.36
2018-01-27T07:43:37.637Z,88.56
2018-01-27T07:46:03.852Z,88.01
2018-01-27T07:48:30.834Z,87.97
2018-01-27T07:50:57.045Z,87.88
2018-01-27T07:53:23.223Z,87.86
2018-01-27T07:55:49.422Z,87.77
2018-01-27T07:58:15.565Z,87.75
2018-01-27T08:00:41.962Z,87.89
2018-01-27T08:03:08.179Z,88.03
2018-01-27T08:05:35.275Z,87.52
2018-01-27T08:08:01.519Z,87.58
2018-01-27T08:10:27.769Z,87.45
2018-01-27T08:12:54.024Z,87.72
2018-01-27T08:15:23.271Z,87.62
2018-01-27T08:17:49.459Z,87.62
2018-01-27T08:20:15.663Z,87.74
2018-01-27T08:22:41.841Z,87.84
2018-01-27T08:25:08.025Z,87.76
2018-01-27T08:27:34.302Z,88.09
2018-01-27T08:30:00.558Z,87.80
2018-01-27T08:32:26.715Z,87.54
2018-01-27T08:34:52.907Z,87.70
2018-01-27T08:37:19.136Z,87.51
2018-01-27T08:39:45.443Z,87.81
2018-01-27T08:42:11.605Z,87.47
2018-01-27T08:44:38.222Z,87.41
2018-01-27T08:47:04.417Z,86.93
2018-01-27T08:49:30.649Z,86.56
2018-01-27T08:51:56.947Z,85.99
2018-01-27T08:54:23.883Z,86.05
2018-01-27T08:56:50.056Z,85.71
2018-01-27T08:59:16.297Z,85.74
2018-01-27T09:01:42.659Z,85.61
2018-01-27T09:04:08.904Z,85.10
2018-01-27T09:06:35.681Z,85.16
2018-01-27T09:09:01.968Z,85.41
2018-01-27T09:11:28.141Z,85.70
2018-01-27T09:13:54.335Z,86.13
2018-01-27T09:16:20.560Z,86.25
2018-01-27T09:18:46.753Z,86.27
2018-01-27T09:21:13.026Z,86.42
2018-01-27T09:23:39.191Z,85.92
2018-01-27T09:26:05.355Z,85.77
2018-01-27T09:28:31.543Z,85.50
2018-01-27T09:30:57.771Z,85.10
2018-01-27T09:33:24.011Z,85.20
2018-01-27T09:35:50.313Z,85.19
2018-01-27T09:38:16.604Z,85.44
2018-01-27T09:40:42.853Z,85.12
2018-01-27T09:43:09.002Z,85.29
2018-01-27T09:45:35.179Z,85.26
2018-01-27T09:48:01.414Z,85.56
2018-01-27T09:50:27.726Z,85.39
2018-01-27T09:52:53.894Z,85.43
2018-01-27T09:55:20.067Z,85.13
2018-01-27T09:57:46.255Z,85.23
2018-01-27T10:00:12.495Z,85.03
2018-01-27T10:02:38.695Z,85.30
2018-01-27T10:05:04.841Z,84.45
2018-01-27T10:07:31.881Z,84.29
2018-01-27T10:09:58.055Z,84.35
2018-01-27T10:12:26.532Z,85.12
2018-01-27T10:14:52.692Z,85.07
2018-01-27T10:17:18.919Z,85.34
2018-01-27T10:19:45.085Z,85.37
2018-01-27T10:22:11.299Z,85.22
2018-01-27T10:24:37.508Z,85.33
2018-01-27T10:27:03.792Z,85.28
2018-01-27T10:29:30.003Z,85.08
2018-01-27T10:31:56.239Z,84.85
2018-01-27T10:34:22.395Z,85.18
2018-01-27T10:36:48.753Z,85.38
2018-01-27T10:39:14.943Z,84.89
2018-01-27T10:41:41.184Z,84.17
2018-01-27T10:44:07.373Z,83.92
2018-01-27T10:46:33.671Z,83.86
2018-01-27T10:48:59.856Z,83.87
2018-01-27T10:51:26.075Z,83.51
2018-01-27T10:53:52.266Z,83.85
2018-01-27T10:56:18.450Z,83.53
2018-01-27T10:58:44.680Z,83.42
2018-01-27T11:01:10.924Z,83.24
2018-01-27T11:03:37.085Z,82.95
2018-01-27T11:06:03.365Z,82.83
2018-01-27T11:08:29.989Z,82.26
2018-01-27T11:10:56.234Z,82.52
2018-01-27T11:13:22.420Z,83.06
2018-01-27T11:15:48.602Z,82.56
2018-01-27T11:18:14.783Z,82.16
2018-01-27T11:20:41.047Z,81.46
2018-01-27T11:23:07.220Z,81.60
2018-01-27T11:25:33.928Z,81.65
2018-01-27T11:28:00.176Z,81.60
2018-01-27T11:30:26.385Z,81.66
2018-01-27T11:32:52.640Z,80.98
2018-01-27T11:35:18.799Z,81.44
2018-01-27T11:37:45.046Z,80.89
2018-01-27T11:40:11.266Z,81.39
2018-01-27T11:42:37.535Z,81.15
2018-01-27T11:45:03.793Z,81.38
2018-01-27T11:47:29.945Z,81.95
2018-01-27T11:49:56.260Z,81.39
2018-01-27T11:52:22.548Z,80.89
2018-01-27T11:54:48.729Z,81.08
2018-01-27T11:57:14.924Z,81.00
2018-01-27T11:59:41.172Z,80.58
2018-01-27T12:02:07.462Z,80.77
2018-01-27T12:04:33.652Z,81.24
2018-01-27T12:06:59.901Z,81.66
2018-01-27T12:09:26.408Z,81.08
2018-01-27T12:11:52.658Z,80.86
2018-01-27T12:14:18.801Z,80.76
2018-01-27T12:16:45.224Z,80.67
2018-01-27T12:19:11.554Z,80.94
2018-01-27T12:21:37.725Z,81.18
2018-01-27T12:24:04.534Z,81.15
2018-01-27T12:26:30.863Z,80.46
2018-01-27T12:28:56.966Z,80.58
2018-01-27T12:31:23.134Z,81.74
2018-01-27T12:33:49.304Z,80.61
2018-01-27T12:36:15.430Z,80.82
2018-01-27T12:38:41.588Z,81.36
2018-01-27T12:41:07.756Z,80.80
2018-01-27T12:43:34.686Z,81.18
2018-01-27T12:46:01.482Z,81.09
2018-01-27T12:48:27.590Z,81.87
2018-01-27T12:50:53.788Z,80.98
2018-01-27T12:53:19.924Z,81.33
2018-01-27T12:55:46.021Z,80.34
2018-01-27T12:58:12.126Z,79.60
2018-01-27T13:00:38.242Z,80.06
2018-01-27T13:03:04.429Z,80.48
2018-01-27T13:05:30.549Z,80.20
2018-01-27T13:07:56.690Z,80.24
2018-01-27T13:10:22.813Z,80.06
2018-01-27T13:12:49.109Z,79.44
2018-01-27T13:15:15.245Z,79.44
2018-01-27T13:17:41.421Z,79.34
2018-01-27T13:20:07.642Z,79.22
2018-01-27T13:22:33.888Z,78.20
2018-01-27T13:24:59.965Z,78.48
2018-01-27T13:27:26.104Z,78.51
2018-01-27T13:29:52.291Z,77.68
2018-01-27T13:32:18.538Z,77.28
2018-01-27T13:34:44.708Z,77.08
2018-01-27T13:37:11.970Z,76.21
2018-01-27T13:39:38.143Z,77.11
2018-01-27T13:42:04.350Z,76.25
2018-01-27T13:44:30.598Z,76.90
2018-01-27T13:46:56.830Z,77.10
2018-01-27T13:49:23.101Z,77.56
2018-01-27T13:51:49.300Z,77.91
2018-01-27T13:54:15.505Z,76.68
2018-01-27T13:56:41.695Z,77.18
2018-01-27T13:59:07.834Z,77.66
2018-01-27T14:01:34.077Z,76.77
2018-01-27T14:04:00.209Z,77.16
2018-01-27T14:06:26.333Z,77.19
2018-01-27T14:08:52.503Z,77.92
2018-01-27T14:11:18.691Z,77.37
2018-01-27T14:13:44.985Z,77.95
2018-01-27T14:16:11.423Z,78.29
2018-01-27T14:18:37.716Z,77.95
2018-01-27T14:21:04.032Z,78.34
2018-01-27T14:23:30.426Z,78.26
2018-01-27T14:25:56.584Z,78.56
2018-01-27T14:28:22.708Z,78.70
2018-01-27T14:30:48.871Z,78.59
2018-01-27T14:33:15.028Z,78.46
2018-01-27T14:35:42.804Z,78.40
2018-01-27T14:38:09.136Z,78.32
2018-01-27T14:40:35.357Z,78.35
2018-01-27T14:43:01.645Z,78.67
2018-01-27T14:45:29.323Z,78.94
2018-01-27T14:47:55.696Z,78.87
2018-01-27T14:50:21.803Z,79.01
2018-01-27T14:52:47.972Z,79.36
2018-01-27T14:55:14.108Z,79.34
2018-01-27T14:57:40.321Z,79.28
2018-01-27T15:00:06.506Z,79.23
2018-01-27T15:02:32.669Z,79.81
2018-01-27T15:04:58.761Z,79.39
2018-01-27T15:07:25.002Z,79.50
2018-01-27T15:09:51.158Z,78.64
2018-01-27T15:12:17.313Z,78.81
2018-01-27T15:14:43.481Z,78.09
2018-01-27T15:17:09.614Z,78.35
2018-01-27T15:19:35.733Z,78.42
2018-01-27T15:22:01.920Z,77.79
2018-01-27T15:24:28.049Z,77.40
2018-01-27T15:26:54.183Z,77.38
2018-01-27T15:29:20.333Z,77.49
2018-01-27T15:31:46.521Z,77.60
2018-01-27T15:34:12.709Z,77.45
2018-01-27T15:36:38.880Z,77.39
2018-01-27T15:39:05.033Z,77.25
2018-01-27T15:41:31.176Z,77.30
2018-01-27T15:43:57.386Z,77.06
2018-01-27T15:46:23.579Z,76.77
2018-01-27T15:48:49.675Z,76.61
2018-01-27T15:51:15.792Z,76.80
2018-01-27T15:53:41.954Z,77.15
2018-01-27T15:56:08.076Z,77.25
2018-01-27T15:58:34.245Z,77.45
2018-01-27T16:01:00.394Z,77.77
2018-01-27T16:03:26.588Z,77.49
2018-01-27T16:05:52.705Z,77.37
2018-01-27T16:08:18.866Z,77.98
2018-01-27T16:10:45.020Z,78.20
2018-01-27T16:13:11.179Z,78.35
2018-01-27T16:15:37.378Z,77.98
2018-01-27T16:18:03.526Z,78.33
2018-01-27T16:20:29.666Z,78.36
2018-01-27T16:22:55.866Z,78.38
2018-01-27T16:25:22.004Z,78.64
2018-01-27T16:27:48.140Z,78.87
2018-01-27T16:30:14.298Z,79.07
2018-01-27T16:32:40.490Z,79.17
2018-01-27T16:35:06.616Z,79.41
2018-01-27T16:37:35.248Z,80.05
2018-01-27T16:40:01.610Z,80.33
2018-01-27T16:42:28.103Z,80.97
2018-01-27T16:44:54.315Z,81.18
2018-01-27T16:47:20.816Z,81.44
2018-01-27T16:49:48.761Z,81.62
2018-01-27T16:52:17.069Z,81.81
2018-01-27T16:54:44.498Z,82.50
2018-01-27T16:57:13.052Z,82.30
2018-01-27T16:59:39.774Z,83.12
2018-01-27T17:02:07.263Z,83.29
2018-01-27T17:04:33.535Z,83.29
2018-01-27T17:06:59.996Z,83.98
2018-01-27T17:09:27.031Z,83.45
2018-01-27T17:11:53.905Z,84.41
2018-01-27T17:14:20.957Z,83.87
2018-01-27T17:16:48.341Z,84.53
2018-01-27T17:19:14.554Z,84.43
2018-01-27T17:21:40.759Z,84.12
2018-01-27T17:24:07.010Z,83.89
2018-01-27T17:26:33.954Z,84.46
2018-01-27T17:29:02.096Z,83.98
2018-01-27T17:31:31.372Z,83.78
2018-01-27T17:33:57.622Z,84.23
2018-01-27T17:36:24.744Z,84.18
2018-01-27T17:38:52.241Z,84.33
2018-01-27T17:41:18.536Z,84.31
2018-01-27T17:43:44.758Z,84.30
2018-01-27T17:46:11.225Z,84.29
2018-01-27T17:48:37.519Z,84.61
2018-01-27T17:51:03.808Z,83.92
2018-01-27T17:53:30.086Z,84.09
2018-01-27T17:55:56.360Z,83.90
2018-01-27T17:58:22.650Z,84.59
2018-01-27T18:00:49.165Z,84.88
2018-01-27T18:03:15.504Z,84.57
2018-01-27T18:05:41.806Z,84.99
2018-01-27T18:08:08.133Z,84.82
2018-01-27T18:10:34.454Z,84.83
2018-01-27T18:13:00.660Z,84.39
2018-01-27T18:15:26.826Z,85.01
2018-01-27T18:17:53.109Z,85.23
2018-01-27T18:20:19.338Z,85.74
2018-01-27T18:22:45.565Z,85.79
2018-01-27T18:25:11.793Z,86.56
2018-01-27T18:27:37.999Z,86.73
2018-01-27T18:30:04.305Z,87.36
2018-01-27T18:32:30.473Z,87.70
2018-01-27T18:34:56.695Z,87.82
2018-01-27T18:37:22.983Z,88.13
2018-01-27T18:39:49.200Z,88.46
2018-01-27T18:42:15.389Z,88.41
2018-01-27T18:44:41.618Z,88.69
2018-01-27T18:47:07.834Z,89.19
2018-01-27T18:49:34.020Z,89.29
2018-01-27T18:52:00.331Z,89.12
2018-01-27T18:54:26.548Z,89.20
2018-01-27T18:56:52.694Z,89.43
2018-01-27T18:59:18.886Z,89.17
2018-01-27T19:01:45.123Z,89.39
2018-01-27T19:04:11.337Z,89.36
2018-01-27T19:06:37.618Z,89.44
2018-01-27T19:09:03.923Z,89.44
2018-01-27T19:11:30.084Z,89.07
2018-01-27T19:13:56.363Z,89.54
2018-01-27T19:16:22.577Z,89.39
2018-01-27T19:18:48.756Z,89.30
2018-01-27T19:21:15.006Z,88.91
2018-01-27T19:23:42.178Z,89.04
2018-01-27T19:26:08.402Z,89.39
2018-01-27T19:28:34.656Z,89.54
2018-01-27T19:31:00.862Z,89.65
2018-01-27T19:33:27.180Z,89.26
2018-01-27T19:35:53.411Z,89.39
2018-01-27T19:38:19.662Z,89.27
2018-01-27T19:40:45.927Z,89.04
2018-01-27T19:43:12.296Z,88.83
2018-01-27T19:45:38.544Z,88.91
2018-01-27T19:48:04.793Z,89.11
2018-01-27T19:50:31.031Z,88.91
2018-01-27T19:52:57.207Z,88.72
2018-01-27T19:55:23.487Z,88.70
2018-01-27T19:57:49.698Z,88.60
2018-01-27T20:00:15.868Z,88.79
2018-01-27T20:02:42.020Z,88.52
2018-01-27T20:05:08.285Z,88.65
2018-01-27T20:07:34.558Z,88.53
2018-01-27T20:10:00.752Z,88.48
2018-01-27T20:12:26.975Z,88.51
2018-01-27T20:14:53.216Z,88.63
2018-01-27T20:17:19.573Z,88.50
2018-01-27T20:19:45.867Z,88.41
2018-01-27T20:22:12.077Z,88.30
2018-01-27T20:24:38.366Z,88.12
2018-01-27T20:27:04.528Z,88.49
2018-01-27T20:29:30.724Z,88.34
2018-01-27T20:31:56.936Z,88.48
2018-01-27T20:34:23.170Z,88.23
2018-01-27T20:36:49.346Z,88.23
2018-01-27T20:39:16.294Z,88.14
2018-01-27T20:41:42.514Z,88.39
2018-01-27T20:44:08.801Z,88.23
2018-01-27T20:46:35.006Z,88.59
2018-01-27T20:49:01.185Z,88.40
2018-01-27T20:51:27.500Z,88.57
2018-01-27T20:53:53.792Z,88.50
2018-01-27T20:56:20.061Z,88.30
2018-01-27T20:58:47.100Z,88.19
2018-01-27T21:01:13.354Z,88.39
2018-01-27T21:03:39.582Z,88.46
2018-01-27T21:06:06.886Z,88.44
2018-01-27T21:08:34.191Z,88.53
2018-01-27T21:11:00.432Z,88.62
2018-01-27T21:13:26.640Z,88.73
2018-01-27T21:15:53.844Z,88.97
2018-01-27T21:18:20.021Z,88.98
2018-01-27T21:20:46.259Z,89.19
2018-01-27T21:23:12.573Z,89.29
2018-01-27T21:25:38.899Z,89.51
2018-01-27T21:28:05.165Z,89.82
2018-01-27T21:30:31.430Z,90.12
2018-01-27T21:32:57.815Z,90.55
2018-01-27T21:35:24.040Z,90.83
2018-01-27T21:37:50.346Z,91.21
2018-01-27T21:40:16.544Z,91.30
2018-01-27T21:42:42.785Z,91.55
2018-01-27T21:45:09.091Z,91.69
2018-01-27T21:47:35.287Z,91.90
2018-01-27T21:50:01.448Z,91.90
2018-01-27T21:52:27.660Z,92.04
2018-01-27T21:54:53.920Z,92.14
2018-01-27T21:57:20.097Z,92.24
2018-01-27T21:59:46.339Z,92.27
2018-01-27T22:02:12.543Z,92.26
2018-01-27T22:04:38.775Z,92.30
2018-01-27T22:07:05.014Z,92.42
2018-01-27T22:09:31.207Z,92.39
2018-01-27T22:11:57.488Z,92.46
2018-01-27T22:14:23.710Z,92.51
2018-01-27T22:16:49.874Z,92.56
2018-01-27T22:19:16.030Z,92.75
2018-01-27T22:21:42.269Z,92.86
2018-01-27T22:24:08.506Z,92.96
2018-01-27T22:26:34.714Z,93.12
2018-01-27T22:29:00.936Z,93.33
2018-01-27T22:31:27.107Z,93.37
2018-01-27T22:33:53.332Z,93.47
2018-01-27T22:36:19.523Z,93.57
2018-01-27T22:38:45.774Z,93.67
2018-01-27T22:41:11.938Z,93.73
2018-01-27T22:43:38.163Z,93.82
2018-01-27T22:46:04.353Z,93.94
2018-01-27T22:48:30.590Z,93.99
2018-01-27T22:50:57.523Z,94.06
2018-01-27T22:53:23.748Z,94.03
2018-01-27T22:55:49.996Z,94.05
2018-01-27T22:58:16.264Z,94.07
2018-01-27T23:00:48.391Z,94.11
2018-01-27T23:03:15.644Z,94.22
2018-01-27T23:05:41.786Z,94.32
2018-01-27T23:08:08.067Z,94.36
2018-01-27T23:10:34.275Z,94.34
2018-01-27T23:13:00.529Z,94.39
2018-01-27T23:15:26.845Z,94.40
2018-01-27T23:17:53.091Z,94.42
2018-01-27T23:20:19.283Z,94.37
2018-01-27T23:22:45.479Z,94.46
2018-01-27T23:25:11.693Z,94.56
2018-01-27T23:27:37.932Z,94.58
2018-01-27T23:30:04.270Z,94.67
2018-01-27T23:32:30.481Z,94.72
2018-01-27T23:34:56.651Z,94.79
2018-01-27T23:37:22.882Z,94.90
2018-01-27T23:39:49.109Z,95.01
2018-01-27T23:42:15.344Z,95.03
2018-01-27T23:44:41.563Z,95.13
2018-01-27T23:47:08.707Z,95.19
2018-01-27T23:49:34.870Z,95.18
2018-01-27T23:52:01.047Z,95.15
2018-01-27T23:54:27.225Z,95.20
2018-01-27T23:56:53.579Z,95.24
2018-01-27T23:59:19.747Z,95.22
